sensor_id;sensor_type;location;lat;lon;timestamp;P1;P2;P0
44684;PMS5003;76140;45.696;8.652;2024-03-17T00:01:16;44;41;
44684;PMS5003;76140;45.696;8.652;2024-03-17T00:03:42;48;45;
44684;PMS5003;76140;45.696;8.652;2024-03-17T00:06:07;41;35;
44684;PMS5003;76140;45.696;8.652;2024-03-17T00:08:33;26;26;
44684;PMS5003;76140;45.696;8.652;2024-03-17T00:10:59;35;33;
44684;PMS5003;76140;45.696;8.652;2024-03-17T00:13:24;62;61;
44684;PMS5003;76140;45.696;8.652;2024-03-17T00:15:50;87;82;
44684;PMS5003;76140;45.696;8.652;2024-03-17T00:18:15;62;58;
44684;PMS5003;76140;45.696;8.652;2024-03-17T00:20:41;32;31;
44684;PMS5003;76140;45.696;8.652;2024-03-17T00:23:06;39;39;
44684;PMS5003;76140;45.696;8.652;2024-03-17T00:25:32;33;33;
44684;PMS5003;76140;45.696;8.652;2024-03-17T00:27:57;36;35;
44684;PMS5003;76140;45.696;8.652;2024-03-17T00:30:23;33;32;
44684;PMS5003;76140;45.696;8.652;2024-03-17T00:32:48;29;29;
44684;PMS5003;76140;45.696;8.652;2024-03-17T00:35:14;29;27;
44684;PMS5003;76140;45.696;8.652;2024-03-17T00:37:40;29;27;
44684;PMS5003;76140;45.696;8.652;2024-03-17T00:40:06;38;35;
44684;PMS5003;76140;45.696;8.652;2024-03-17T00:42:31;31;31;
44684;PMS5003;76140;45.696;8.652;2024-03-17T00:44:56;26;25;
44684;PMS5003;76140;45.696;8.652;2024-03-17T00:47:22;31;30;
44684;PMS5003;76140;45.696;8.652;2024-03-17T00:49:47;26;26;
44684;PMS5003;76140;45.696;8.652;2024-03-17T00:52:12;26;25;
44684;PMS5003;76140;45.696;8.652;2024-03-17T00:54:38;33;31;
44684;PMS5003;76140;45.696;8.652;2024-03-17T00:57:04;30;28;
44684;PMS5003;76140;45.696;8.652;2024-03-17T00:59:29;29;26;
44684;PMS5003;76140;45.696;8.652;2024-03-17T01:01:54;27;26;
44684;PMS5003;76140;45.696;8.652;2024-03-17T01:04:20;28;27;
44684;PMS5003;76140;45.696;8.652;2024-03-17T01:06:45;30;30;
44684;PMS5003;76140;45.696;8.652;2024-03-17T01:09:11;32;32;
44684;PMS5003;76140;45.696;8.652;2024-03-17T01:11:36;33;32;
44684;PMS5003;76140;45.696;8.652;2024-03-17T01:14:02;35;34;
44684;PMS5003;76140;45.696;8.652;2024-03-17T01:16:27;37;35;
44684;PMS5003;76140;45.696;8.652;2024-03-17T01:18:52;36;35;
44684;PMS5003;76140;45.696;8.652;2024-03-17T01:21:19;32;29;
44684;PMS5003;76140;45.696;8.652;2024-03-17T01:23:43;35;34;
44684;PMS5003;76140;45.696;8.652;2024-03-17T01:26:09;37;36;
44684;PMS5003;76140;45.696;8.652;2024-03-17T01:28:34;29;29;
44684;PMS5003;76140;45.696;8.652;2024-03-17T01:31:00;35;34;
44684;PMS5003;76140;45.696;8.652;2024-03-17T01:33:25;30;28;
44684;PMS5003;76140;45.696;8.652;2024-03-17T01:35:51;31;29;
44684;PMS5003;76140;45.696;8.652;2024-03-17T01:38:16;35;34;
44684;PMS5003;76140;45.696;8.652;2024-03-17T01:40:42;41;40;
44684;PMS5003;76140;45.696;8.652;2024-03-17T01:43:09;38;35;
44684;PMS5003;76140;45.696;8.652;2024-03-17T01:45:34;35;33;
44684;PMS5003;76140;45.696;8.652;2024-03-17T01:48:00;26;26;
44684;PMS5003;76140;45.696;8.652;2024-03-17T01:50:25;33;31;
44684;PMS5003;76140;45.696;8.652;2024-03-17T01:52:51;29;29;
44684;PMS5003;76140;45.696;8.652;2024-03-17T01:55:16;28;28;
44684;PMS5003;76140;45.696;8.652;2024-03-17T01:57:41;32;31;
44684;PMS5003;76140;45.696;8.652;2024-03-17T02:00:06;31;27;
44684;PMS5003;76140;45.696;8.652;2024-03-17T02:02:31;31;28;
44684;PMS5003;76140;45.696;8.652;2024-03-17T02:04:57;26;25;
44684;PMS5003;76140;45.696;8.652;2024-03-17T02:07:22;30;30;
44684;PMS5003;76140;45.696;8.652;2024-03-17T02:09:48;25;24;
44684;PMS5003;76140;45.696;8.652;2024-03-17T02:12:13;26;25;
44684;PMS5003;76140;45.696;8.652;2024-03-17T02:14:39;28;27;
44684;PMS5003;76140;45.696;8.652;2024-03-17T02:17:05;28;26;
44684;PMS5003;76140;45.696;8.652;2024-03-17T02:19:30;33;27;
44684;PMS5003;76140;45.696;8.652;2024-03-17T02:21:55;28;27;
44684;PMS5003;76140;45.696;8.652;2024-03-17T02:24:20;25;25;
44684;PMS5003;76140;45.696;8.652;2024-03-17T02:26:46;25;25;
44684;PMS5003;76140;45.696;8.652;2024-03-17T02:29:12;26;25;
44684;PMS5003;76140;45.696;8.652;2024-03-17T02:31:37;24;23;
44684;PMS5003;76140;45.696;8.652;2024-03-17T02:34:03;25;25;
44684;PMS5003;76140;45.696;8.652;2024-03-17T02:36:29;27;25;
44684;PMS5003;76140;45.696;8.652;2024-03-17T02:38:54;27;26;
44684;PMS5003;76140;45.696;8.652;2024-03-17T02:41:19;21;21;
44684;PMS5003;76140;45.696;8.652;2024-03-17T02:43:45;25;23;
44684;PMS5003;76140;45.696;8.652;2024-03-17T02:46:11;26;24;
44684;PMS5003;76140;45.696;8.652;2024-03-17T02:48:36;26;23;
44684;PMS5003;76140;45.696;8.652;2024-03-17T02:51:02;25;24;
44684;PMS5003;76140;45.696;8.652;2024-03-17T02:53:27;25;25;
44684;PMS5003;76140;45.696;8.652;2024-03-17T02:55:52;24;24;
44684;PMS5003;76140;45.696;8.652;2024-03-17T02:58:18;25;21;
44684;PMS5003;76140;45.696;8.652;2024-03-17T03:00:43;24;24;
44684;PMS5003;76140;45.696;8.652;2024-03-17T03:03:09;26;24;
44684;PMS5003;76140;45.696;8.652;2024-03-17T03:05:34;23;23;
44684;PMS5003;76140;45.696;8.652;2024-03-17T03:07:59;27;26;
44684;PMS5003;76140;45.696;8.652;2024-03-17T03:10:25;23;22;
44684;PMS5003;76140;45.696;8.652;2024-03-17T03:12:51;21;21;
44684;PMS5003;76140;45.696;8.652;2024-03-17T03:15:16;24;23;
44684;PMS5003;76140;45.696;8.652;2024-03-17T03:17:41;26;26;
44684;PMS5003;76140;45.696;8.652;2024-03-17T03:20:07;23;22;
44684;PMS5003;76140;45.696;8.652;2024-03-17T03:22:33;24;24;
44684;PMS5003;76140;45.696;8.652;2024-03-17T03:24:59;25;25;
44684;PMS5003;76140;45.696;8.652;2024-03-17T03:27:25;29;25;
44684;PMS5003;76140;45.696;8.652;2024-03-17T03:29:50;27;25;
44684;PMS5003;76140;45.696;8.652;2024-03-17T03:32:16;21;21;
44684;PMS5003;76140;45.696;8.652;2024-03-17T03:34:41;24;22;
44684;PMS5003;76140;45.696;8.652;2024-03-17T03:37:07;20;18;
44684;PMS5003;76140;45.696;8.652;2024-03-17T03:39:32;20;20;
44684;PMS5003;76140;45.696;8.652;2024-03-17T03:41:58;23;22;
44684;PMS5003;76140;45.696;8.652;2024-03-17T03:44:23;21;20;
44684;PMS5003;76140;45.696;8.652;2024-03-17T03:46:49;19;19;
44684;PMS5003;76140;45.696;8.652;2024-03-17T03:49:14;22;20;
44684;PMS5003;76140;45.696;8.652;2024-03-17T03:51:40;21;20;
44684;PMS5003;76140;45.696;8.652;2024-03-17T03:54:05;19;18;
44684;PMS5003;76140;45.696;8.652;2024-03-17T03:56:31;16;16;
44684;PMS5003;76140;45.696;8.652;2024-03-17T03:58:57;18;17;
44684;PMS5003;76140;45.696;8.652;2024-03-17T04:01:22;16;15;
44684;PMS5003;76140;45.696;8.652;2024-03-17T04:03:47;18;18;
44684;PMS5003;76140;45.696;8.652;2024-03-17T04:06:12;18;17;
44684;PMS5003;76140;45.696;8.652;2024-03-17T04:08:38;17;16;
44684;PMS5003;76140;45.696;8.652;2024-03-17T04:11:03;16;15;
44684;PMS5003;76140;45.696;8.652;2024-03-17T04:13:28;15;14;
44684;PMS5003;76140;45.696;8.652;2024-03-17T04:15:54;14;13;
44684;PMS5003;76140;45.696;8.652;2024-03-17T04:18:19;13;13;
44684;PMS5003;76140;45.696;8.652;2024-03-17T04:20:44;13;12;
44684;PMS5003;76140;45.696;8.652;2024-03-17T04:23:09;11;11;
44684;PMS5003;76140;45.696;8.652;2024-03-17T04:25:35;15;14;
44684;PMS5003;76140;45.696;8.652;2024-03-17T04:28:00;12;11;
44684;PMS5003;76140;45.696;8.652;2024-03-17T04:30:25;12;11;
44684;PMS5003;76140;45.696;8.652;2024-03-17T04:32:51;12;12;
44684;PMS5003;76140;45.696;8.652;2024-03-17T04:35:16;11;11;
44684;PMS5003;76140;45.696;8.652;2024-03-17T04:37:42;11;11;
44684;PMS5003;76140;45.696;8.652;2024-03-17T04:40:08;12;12;
44684;PMS5003;76140;45.696;8.652;2024-03-17T04:42:33;13;12;
44684;PMS5003;76140;45.696;8.652;2024-03-17T04:44:58;12;11;
44684;PMS5003;76140;45.696;8.652;2024-03-17T04:47:23;11;11;
44684;PMS5003;76140;45.696;8.652;2024-03-17T04:49:48;11;11;
44684;PMS5003;76140;45.696;8.652;2024-03-17T04:52:14;11;11;
44684;PMS5003;76140;45.696;8.652;2024-03-17T04:54:39;12;11;
44684;PMS5003;76140;45.696;8.652;2024-03-17T04:57:04;11;11;
44684;PMS5003;76140;45.696;8.652;2024-03-17T04:59:29;11;10;
44684;PMS5003;76140;45.696;8.652;2024-03-17T05:01:54;11;11;
44684;PMS5003;76140;45.696;8.652;2024-03-17T05:04:20;10;10;
44684;PMS5003;76140;45.696;8.652;2024-03-17T05:06:45;14;13;
44684;PMS5003;76140;45.696;8.652;2024-03-17T05:09:10;10;9;
44684;PMS5003;76140;45.696;8.652;2024-03-17T05:11:35;10;10;
44684;PMS5003;76140;45.696;8.652;2024-03-17T05:14:01;11;11;
44684;PMS5003;76140;45.696;8.652;2024-03-17T05:16:26;14;12;
44684;PMS5003;76140;45.696;8.652;2024-03-17T05:18:51;12;12;
44684;PMS5003;76140;45.696;8.652;2024-03-17T05:21:16;13;13;
44684;PMS5003;76140;45.696;8.652;2024-03-17T05:23:42;11;10;
44684;PMS5003;76140;45.696;8.652;2024-03-17T05:26:07;12;12;
44684;PMS5003;76140;45.696;8.652;2024-03-17T05:28:32;12;12;
44684;PMS5003;76140;45.696;8.652;2024-03-17T05:30:58;12;11;
44684;PMS5003;76140;45.696;8.652;2024-03-17T05:33:23;11;10;
44684;PMS5003;76140;45.696;8.652;2024-03-17T05:35:48;9;9;
44684;PMS5003;76140;45.696;8.652;2024-03-17T05:38:13;9;9;
44684;PMS5003;76140;45.696;8.652;2024-03-17T05:40:38;7;7;
44684;PMS5003;76140;45.696;8.652;2024-03-17T05:43:04;11;10;
44684;PMS5003;76140;45.696;8.652;2024-03-17T05:45:29;8;8;
44684;PMS5003;76140;45.696;8.652;2024-03-17T05:47:54;8;8;
44684;PMS5003;76140;45.696;8.652;2024-03-17T05:50:19;8;8;
44684;PMS5003;76140;45.696;8.652;2024-03-17T05:52:45;8;8;
44684;PMS5003;76140;45.696;8.652;2024-03-17T05:55:10;7;7;
44684;PMS5003;76140;45.696;8.652;2024-03-17T05:57:35;9;8;
44684;PMS5003;76140;45.696;8.652;2024-03-17T06:00:00;11;11;
44684;PMS5003;76140;45.696;8.652;2024-03-17T06:02:25;11;10;
44684;PMS5003;76140;45.696;8.652;2024-03-17T06:04:51;10;9;
44684;PMS5003;76140;45.696;8.652;2024-03-17T06:07:16;9;9;
44684;PMS5003;76140;45.696;8.652;2024-03-17T06:09:41;11;11;
44684;PMS5003;76140;45.696;8.652;2024-03-17T06:12:07;10;9;
44684;PMS5003;76140;45.696;8.652;2024-03-17T06:14:32;9;9;
44684;PMS5003;76140;45.696;8.652;2024-03-17T06:16:57;7;7;
44684;PMS5003;76140;45.696;8.652;2024-03-17T06:19:23;11;10;
44684;PMS5003;76140;45.696;8.652;2024-03-17T06:21:48;9;8;
44684;PMS5003;76140;45.696;8.652;2024-03-17T06:24:13;8;8;
44684;PMS5003;76140;45.696;8.652;2024-03-17T06:26:38;10;9;
44684;PMS5003;76140;45.696;8.652;2024-03-17T06:29:04;11;11;
44684;PMS5003;76140;45.696;8.652;2024-03-17T06:31:29;9;8;
44684;PMS5003;76140;45.696;8.652;2024-03-17T06:33:54;8;8;
44684;PMS5003;76140;45.696;8.652;2024-03-17T06:36:19;8;8;
44684;PMS5003;76140;45.696;8.652;2024-03-17T06:38:44;8;8;
44684;PMS5003;76140;45.696;8.652;2024-03-17T06:41:10;8;8;
44684;PMS5003;76140;45.696;8.652;2024-03-17T06:43:35;11;9;
44684;PMS5003;76140;45.696;8.652;2024-03-17T06:46:00;8;7;
44684;PMS5003;76140;45.696;8.652;2024-03-17T06:48:25;9;8;
44684;PMS5003;76140;45.696;8.652;2024-03-17T06:50:50;10;8;
44684;PMS5003;76140;45.696;8.652;2024-03-17T06:53:15;6;6;
44684;PMS5003;76140;45.696;8.652;2024-03-17T06:55:40;6;6;
44684;PMS5003;76140;45.696;8.652;2024-03-17T06:58:05;7;6;
44684;PMS5003;76140;45.696;8.652;2024-03-17T07:00:31;6;6;
44684;PMS5003;76140;45.696;8.652;2024-03-17T07:02:56;9;9;
44684;PMS5003;76140;45.696;8.652;2024-03-17T07:05:22;7;7;
44684;PMS5003;76140;45.696;8.652;2024-03-17T07:07:47;8;7;
44684;PMS5003;76140;45.696;8.652;2024-03-17T07:10:12;9;8;
44684;PMS5003;76140;45.696;8.652;2024-03-17T07:12:37;8;7;
44684;PMS5003;76140;45.696;8.652;2024-03-17T07:15:02;11;11;
44684;PMS5003;76140;45.696;8.652;2024-03-17T07:17:27;10;8;
44684;PMS5003;76140;45.696;8.652;2024-03-17T07:19:53;13;13;
44684;PMS5003;76140;45.696;8.652;2024-03-17T07:22:18;11;10;
44684;PMS5003;76140;45.696;8.652;2024-03-17T07:24:43;11;10;
44684;PMS5003;76140;45.696;8.652;2024-03-17T07:27:08;10;10;
44684;PMS5003;76140;45.696;8.652;2024-03-17T07:29:33;9;9;
44684;PMS5003;76140;45.696;8.652;2024-03-17T07:31:58;6;6;
44684;PMS5003;76140;45.696;8.652;2024-03-17T07:34:23;7;7;
44684;PMS5003;76140;45.696;8.652;2024-03-17T07:36:48;7;7;
44684;PMS5003;76140;45.696;8.652;2024-03-17T07:39:13;6;6;
44684;PMS5003;76140;45.696;8.652;2024-03-17T07:41:38;6;6;
44684;PMS5003;76140;45.696;8.652;2024-03-17T07:44:04;6;6;
44684;PMS5003;76140;45.696;8.652;2024-03-17T07:46:28;8;8;
44684;PMS5003;76140;45.696;8.652;2024-03-17T07:48:53;7;6;
44684;PMS5003;76140;45.696;8.652;2024-03-17T07:51:18;6;6;
44684;PMS5003;76140;45.696;8.652;2024-03-17T07:53:44;8;7;
44684;PMS5003;76140;45.696;8.652;2024-03-17T07:56:09;7;7;
44684;PMS5003;76140;45.696;8.652;2024-03-17T07:58:34;6;6;
44684;PMS5003;76140;45.696;8.652;2024-03-17T08:00:59;7;7;
44684;PMS5003;76140;45.696;8.652;2024-03-17T08:03:24;7;6;
44684;PMS5003;76140;45.696;8.652;2024-03-17T08:05:49;5;5;
44684;PMS5003;76140;45.696;8.652;2024-03-17T08:08:14;8;8;
44684;PMS5003;76140;45.696;8.652;2024-03-17T08:10:39;8;7;
44684;PMS5003;76140;45.696;8.652;2024-03-17T08:13:04;8;8;
44684;PMS5003;76140;45.696;8.652;2024-03-17T08:15:29;9;5;
44684;PMS5003;76140;45.696;8.652;2024-03-17T08:17:54;6;6;
44684;PMS5003;76140;45.696;8.652;2024-03-17T08:20:19;9;7;
44684;PMS5003;76140;45.696;8.652;2024-03-17T08:22:44;6;5;
44684;PMS5003;76140;45.696;8.652;2024-03-17T08:25:09;7;7;
44684;PMS5003;76140;45.696;8.652;2024-03-17T08:27:34;5;5;
44684;PMS5003;76140;45.696;8.652;2024-03-17T08:29:59;9;7;
44684;PMS5003;76140;45.696;8.652;2024-03-17T08:32:24;6;6;
44684;PMS5003;76140;45.696;8.652;2024-03-17T08:34:49;9;7;
44684;PMS5003;76140;45.696;8.652;2024-03-17T08:37:15;8;7;
44684;PMS5003;76140;45.696;8.652;2024-03-17T08:39:40;6;6;
44684;PMS5003;76140;45.696;8.652;2024-03-17T08:42:05;8;8;
44684;PMS5003;76140;45.696;8.652;2024-03-17T08:44:31;10;7;
44684;PMS5003;76140;45.696;8.652;2024-03-17T08:46:56;8;8;
44684;PMS5003;76140;45.696;8.652;2024-03-17T08:49:21;9;8;
44684;PMS5003;76140;45.696;8.652;2024-03-17T08:51:46;9;9;
44684;PMS5003;76140;45.696;8.652;2024-03-17T08:54:11;7;7;
44684;PMS5003;76140;45.696;8.652;2024-03-17T08:56:36;9;8;
44684;PMS5003;76140;45.696;8.652;2024-03-17T08:59:01;7;7;
44684;PMS5003;76140;45.696;8.652;2024-03-17T09:01:26;7;7;
44684;PMS5003;76140;45.696;8.652;2024-03-17T09:03:51;8;8;
44684;PMS5003;76140;45.696;8.652;2024-03-17T09:06:16;7;7;
44684;PMS5003;76140;45.696;8.652;2024-03-17T09:08:41;7;7;
44684;PMS5003;76140;45.696;8.652;2024-03-17T09:11:06;7;6;
44684;PMS5003;76140;45.696;8.652;2024-03-17T09:13:32;6;6;
44684;PMS5003;76140;45.696;8.652;2024-03-17T09:15:57;6;6;
44684;PMS5003;76140;45.696;8.652;2024-03-17T09:18:22;7;6;
44684;PMS5003;76140;45.696;8.652;2024-03-17T09:20:55;8;7;
44684;PMS5003;76140;45.696;8.652;2024-03-17T09:23:12;5;4;
44684;PMS5003;76140;45.696;8.652;2024-03-17T09:25:37;7;5;
44684;PMS5003;76140;45.696;8.652;2024-03-17T09:28:02;4;4;
44684;PMS5003;76140;45.696;8.652;2024-03-17T09:30:27;4;4;
44684;PMS5003;76140;45.696;8.652;2024-03-17T09:32:52;3;3;
44684;PMS5003;76140;45.696;8.652;2024-03-17T09:35:17;5;5;
44684;PMS5003;76140;45.696;8.652;2024-03-17T09:37:43;5;4;
44684;PMS5003;76140;45.696;8.652;2024-03-17T09:40:09;5;5;
44684;PMS5003;76140;45.696;8.652;2024-03-17T09:42:33;5;5;
44684;PMS5003;76140;45.696;8.652;2024-03-17T09:44:58;4;4;
44684;PMS5003;76140;45.696;8.652;2024-03-17T09:47:24;4;4;
44684;PMS5003;76140;45.696;8.652;2024-03-17T09:49:48;5;4;
44684;PMS5003;76140;45.696;8.652;2024-03-17T09:52:16;3;3;
44684;PMS5003;76140;45.696;8.652;2024-03-17T09:54:38;3;3;
44684;PMS5003;76140;45.696;8.652;2024-03-17T09:57:05;6;5;
44684;PMS5003;76140;45.696;8.652;2024-03-17T09:59:28;4;4;
44684;PMS5003;76140;45.696;8.652;2024-03-17T10:01:53;6;5;
44684;PMS5003;76140;45.696;8.652;2024-03-17T10:04:30;7;6;
44684;PMS5003;76140;45.696;8.652;2024-03-17T10:06:44;8;8;
44684;PMS5003;76140;45.696;8.652;2024-03-17T10:09:08;8;7;
44684;PMS5003;76140;45.696;8.652;2024-03-17T10:11:34;8;7;
44684;PMS5003;76140;45.696;8.652;2024-03-17T10:13:59;6;6;
44684;PMS5003;76140;45.696;8.652;2024-03-17T10:16:24;5;5;
44684;PMS5003;76140;45.696;8.652;2024-03-17T10:18:49;5;5;
44684;PMS5003;76140;45.696;8.652;2024-03-17T10:21:20;6;5;
44684;PMS5003;76140;45.696;8.652;2024-03-17T10:23:39;5;5;
44684;PMS5003;76140;45.696;8.652;2024-03-17T10:26:08;6;5;
44684;PMS5003;76140;45.696;8.652;2024-03-17T10:28:29;6;6;
44684;PMS5003;76140;45.696;8.652;2024-03-17T10:30:58;7;7;
44684;PMS5003;76140;45.696;8.652;2024-03-17T10:33:22;12;11;
44684;PMS5003;76140;45.696;8.652;2024-03-17T10:35:45;9;9;
44684;PMS5003;76140;45.696;8.652;2024-03-17T10:38:10;21;20;
44684;PMS5003;76140;45.696;8.652;2024-03-17T10:40:36;16;15;
44684;PMS5003;76140;45.696;8.652;2024-03-17T10:43:02;16;16;
44684;PMS5003;76140;45.696;8.652;2024-03-17T10:45:28;14;14;
44684;PMS5003;76140;45.696;8.652;2024-03-17T10:47:52;13;12;
44684;PMS5003;76140;45.696;8.652;2024-03-17T10:50:18;17;16;
44684;PMS5003;76140;45.696;8.652;2024-03-17T10:52:44;13;12;
44684;PMS5003;76140;45.696;8.652;2024-03-17T10:55:09;13;12;
44684;PMS5003;76140;45.696;8.652;2024-03-17T10:57:36;17;16;
44684;PMS5003;76140;45.696;8.652;2024-03-17T11:00:01;18;18;
44684;PMS5003;76140;45.696;8.652;2024-03-17T11:02:27;14;13;
44684;PMS5003;76140;45.696;8.652;2024-03-17T11:04:52;16;13;
44684;PMS5003;76140;45.696;8.652;2024-03-17T11:07:18;15;15;
44684;PMS5003;76140;45.696;8.652;2024-03-17T11:09:43;12;11;
44684;PMS5003;76140;45.696;8.652;2024-03-17T11:12:20;15;15;
44684;PMS5003;76140;45.696;8.652;2024-03-17T11:14:34;17;17;
44684;PMS5003;76140;45.696;8.652;2024-03-17T11:17:00;17;16;
44684;PMS5003;76140;45.696;8.652;2024-03-17T11:19:25;21;20;
44684;PMS5003;76140;45.696;8.652;2024-03-17T11:21:51;17;16;
44684;PMS5003;76140;45.696;8.652;2024-03-17T11:24:19;18;17;
44684;PMS5003;76140;45.696;8.652;2024-03-17T11:26:42;17;16;
44684;PMS5003;76140;45.696;8.652;2024-03-17T11:29:23;22;21;
44684;PMS5003;76140;45.696;8.652;2024-03-17T11:31:34;21;19;
44684;PMS5003;76140;45.696;8.652;2024-03-17T11:33:59;22;21;
44684;PMS5003;76140;45.696;8.652;2024-03-17T11:36:33;24;24;
44684;PMS5003;76140;45.696;8.652;2024-03-17T11:38:50;22;21;
44684;PMS5003;76140;45.696;8.652;2024-03-17T11:41:48;20;18;
44684;PMS5003;76140;45.696;8.652;2024-03-17T11:43:41;26;25;
44684;PMS5003;76140;45.696;8.652;2024-03-17T11:46:06;21;20;
44684;PMS5003;76140;45.696;8.652;2024-03-17T11:48:32;27;26;
44684;PMS5003;76140;45.696;8.652;2024-03-17T11:50:57;27;25;
44684;PMS5003;76140;45.696;8.652;2024-03-17T11:53:23;25;21;
44684;PMS5003;76140;45.696;8.652;2024-03-17T11:55:49;25;24;
44684;PMS5003;76140;45.696;8.652;2024-03-17T11:58:14;25;22;
44684;PMS5003;76140;45.696;8.652;2024-03-17T12:00:40;24;22;
44684;PMS5003;76140;45.696;8.652;2024-03-17T12:03:05;25;20;
44684;PMS5003;76140;45.696;8.652;2024-03-17T12:05:30;18;18;
44684;PMS5003;76140;45.696;8.652;2024-03-17T12:07:56;22;22;
44684;PMS5003;76140;45.696;8.652;2024-03-17T12:10:21;26;24;
44684;PMS5003;76140;45.696;8.652;2024-03-17T12:12:47;25;23;
44684;PMS5003;76140;45.696;8.652;2024-03-17T12:15:15;28;26;
44684;PMS5003;76140;45.696;8.652;2024-03-17T12:17:37;25;25;
44684;PMS5003;76140;45.696;8.652;2024-03-17T12:20:02;24;24;
44684;PMS5003;76140;45.696;8.652;2024-03-17T12:22:28;25;25;
44684;PMS5003;76140;45.696;8.652;2024-03-17T12:24:53;23;22;
44684;PMS5003;76140;45.696;8.652;2024-03-17T12:27:19;25;24;
44684;PMS5003;76140;45.696;8.652;2024-03-17T12:29:44;32;30;
44684;PMS5003;76140;45.696;8.652;2024-03-17T12:32:10;27;26;
44684;PMS5003;76140;45.696;8.652;2024-03-17T12:34:34;32;31;
44684;PMS5003;76140;45.696;8.652;2024-03-17T12:37:00;28;27;
44684;PMS5003;76140;45.696;8.652;2024-03-17T12:39:25;27;26;
44684;PMS5003;76140;45.696;8.652;2024-03-17T12:42:07;34;32;
44684;PMS5003;76140;45.696;8.652;2024-03-17T12:44:22;38;36;
44684;PMS5003;76140;45.696;8.652;2024-03-17T12:46:41;28;28;
44684;PMS5003;76140;45.696;8.652;2024-03-17T12:49:06;31;30;
44684;PMS5003;76140;45.696;8.652;2024-03-17T12:51:33;32;29;
44684;PMS5003;76140;45.696;8.652;2024-03-17T12:54:11;30;28;
44684;PMS5003;76140;45.696;8.652;2024-03-17T12:56:22;27;25;
44684;PMS5003;76140;45.696;8.652;2024-03-17T12:58:47;39;38;
44684;PMS5003;76140;45.696;8.652;2024-03-17T13:01:12;38;36;
44684;PMS5003;76140;45.696;8.652;2024-03-17T13:03:40;37;35;
44684;PMS5003;76140;45.696;8.652;2024-03-17T13:06:05;36;34;
44684;PMS5003;76140;45.696;8.652;2024-03-17T13:08:30;34;33;
44684;PMS5003;76140;45.696;8.652;2024-03-17T13:10:55;36;34;
44684;PMS5003;76140;45.696;8.652;2024-03-17T13:13:21;37;36;
44684;PMS5003;76140;45.696;8.652;2024-03-17T13:15:47;32;31;
44684;PMS5003;76140;45.696;8.652;2024-03-17T13:18:15;32;32;
44684;PMS5003;76140;45.696;8.652;2024-03-17T13:20:38;37;35;
44684;PMS5003;76140;45.696;8.652;2024-03-17T13:23:04;32;30;
44684;PMS5003;76140;45.696;8.652;2024-03-17T13:25:29;39;37;
44684;PMS5003;76140;45.696;8.652;2024-03-17T13:27:54;36;34;
44684;PMS5003;76140;45.696;8.652;2024-03-17T13:30:20;41;38;
44684;PMS5003;76140;45.696;8.652;2024-03-17T13:32:45;46;45;
44684;PMS5003;76140;45.696;8.652;2024-03-17T13:35:14;42;41;
44684;PMS5003;76140;45.696;8.652;2024-03-17T13:37:35;50;48;
44684;PMS5003;76140;45.696;8.652;2024-03-17T13:40:01;47;45;
44684;PMS5003;76140;45.696;8.652;2024-03-17T13:42:27;41;39;
44684;PMS5003;76140;45.696;8.652;2024-03-17T13:44:53;44;42;
44684;PMS5003;76140;45.696;8.652;2024-03-17T13:47:19;44;42;
44684;PMS5003;76140;45.696;8.652;2024-03-17T13:49:44;43;40;
44684;PMS5003;76140;45.696;8.652;2024-03-17T13:52:10;42;42;
44684;PMS5003;76140;45.696;8.652;2024-03-17T13:54:35;40;38;
44684;PMS5003;76140;45.696;8.652;2024-03-17T13:57:01;46;40;
44684;PMS5003;76140;45.696;8.652;2024-03-17T13:59:26;42;41;
44684;PMS5003;76140;45.696;8.652;2024-03-17T14:01:51;40;39;
44684;PMS5003;76140;45.696;8.652;2024-03-17T14:04:17;35;35;
44684;PMS5003;76140;45.696;8.652;2024-03-17T14:06:43;43;41;
44684;PMS5003;76140;45.696;8.652;2024-03-17T14:09:07;44;41;
44684;PMS5003;76140;45.696;8.652;2024-03-17T14:11:33;46;44;
44684;PMS5003;76140;45.696;8.652;2024-03-17T14:13:58;49;47;
44684;PMS5003;76140;45.696;8.652;2024-03-17T14:16:24;49;46;
44684;PMS5003;76140;45.696;8.652;2024-03-17T14:18:49;46;41;
44684;PMS5003;76140;45.696;8.652;2024-03-17T14:21:15;37;36;
44684;PMS5003;76140;45.696;8.652;2024-03-17T14:23:40;37;36;
44684;PMS5003;76140;45.696;8.652;2024-03-17T14:26:06;43;40;
44684;PMS5003;76140;45.696;8.652;2024-03-17T14:28:32;48;47;
44684;PMS5003;76140;45.696;8.652;2024-03-17T14:30:57;46;44;
44684;PMS5003;76140;45.696;8.652;2024-03-17T14:33:22;47;45;
44684;PMS5003;76140;45.696;8.652;2024-03-17T14:35:49;43;42;
44684;PMS5003;76140;45.696;8.652;2024-03-17T14:38:13;46;44;
44684;PMS5003;76140;45.696;8.652;2024-03-17T14:40:38;41;39;
44684;PMS5003;76140;45.696;8.652;2024-03-17T14:43:04;49;47;
44684;PMS5003;76140;45.696;8.652;2024-03-17T14:45:29;49;46;
44684;PMS5003;76140;45.696;8.652;2024-03-17T14:47:55;47;42;
44684;PMS5003;76140;45.696;8.652;2024-03-17T14:50:20;48;46;
44684;PMS5003;76140;45.696;8.652;2024-03-17T14:52:45;44;42;
44684;PMS5003;76140;45.696;8.652;2024-03-17T14:55:10;51;47;
44684;PMS5003;76140;45.696;8.652;2024-03-17T14:57:35;44;42;
44684;PMS5003;76140;45.696;8.652;2024-03-17T15:00:01;36;34;
44684;PMS5003;76140;45.696;8.652;2024-03-17T15:02:26;37;35;
44684;PMS5003;76140;45.696;8.652;2024-03-17T15:04:51;36;34;
44684;PMS5003;76140;45.696;8.652;2024-03-17T15:07:17;33;32;
44684;PMS5003;76140;45.696;8.652;2024-03-17T15:09:42;42;38;
44684;PMS5003;76140;45.696;8.652;2024-03-17T15:12:08;33;28;
44684;PMS5003;76140;45.696;8.652;2024-03-17T15:14:34;33;32;
44684;PMS5003;76140;45.696;8.652;2024-03-17T15:16:59;32;32;
44684;PMS5003;76140;45.696;8.652;2024-03-17T15:19:24;31;30;
44684;PMS5003;76140;45.696;8.652;2024-03-17T15:21:49;31;30;
44684;PMS5003;76140;45.696;8.652;2024-03-17T15:24:15;37;33;
44684;PMS5003;76140;45.696;8.652;2024-03-17T15:26:40;35;34;
44684;PMS5003;76140;45.696;8.652;2024-03-17T15:29:06;32;30;
44684;PMS5003;76140;45.696;8.652;2024-03-17T15:31:31;35;33;
44684;PMS5003;76140;45.696;8.652;2024-03-17T15:33:56;35;31;
44684;PMS5003;76140;45.696;8.652;2024-03-17T15:36:22;30;30;
44684;PMS5003;76140;45.696;8.652;2024-03-17T15:38:48;37;35;
44684;PMS5003;76140;45.696;8.652;2024-03-17T15:41:13;35;33;
44684;PMS5003;76140;45.696;8.652;2024-03-17T15:43:39;40;34;
44684;PMS5003;76140;45.696;8.652;2024-03-17T15:46:06;42;36;
44684;PMS5003;76140;45.696;8.652;2024-03-17T15:48:30;44;41;
44684;PMS5003;76140;45.696;8.652;2024-03-17T15:50:56;41;40;
44684;PMS5003;76140;45.696;8.652;2024-03-17T15:53:21;32;32;
44684;PMS5003;76140;45.696;8.652;2024-03-17T15:55:52;33;30;
44684;PMS5003;76140;45.696;8.652;2024-03-17T15:58:12;34;31;
44684;PMS5003;76140;45.696;8.652;2024-03-17T16:00:37;41;38;
44684;PMS5003;76140;45.696;8.652;2024-03-17T16:03:02;41;37;
44684;PMS5003;76140;45.696;8.652;2024-03-17T16:05:27;38;36;
44684;PMS5003;76140;45.696;8.652;2024-03-17T16:07:53;35;34;
44684;PMS5003;76140;45.696;8.652;2024-03-17T16:10:19;36;31;
44684;PMS5003;76140;45.696;8.652;2024-03-17T16:12:43;27;25;